sensor_id;sensor_type;location;lat;lon;timestamp;pressure;altitude;pressure_sealevel;temperature;humidity
6668;BME280;3370;47.712;9.082;2023-06-19T00:02:21;96709.94;;;21.32;64.57
6668;BME280;3370;47.712;9.082;2023-06-19T00:04:47;96712.66;;;21.12;65.05
6668;BME280;3370;47.712;9.082;2023-06-19T00:07:13;96707.88;;;20.98;66.03
6668;BME280;3370;47.712;9.082;2023-06-19T00:09:39;96710.09;;;20.93;66.25
6668;BME280;3370;47.712;9.082;2023-06-19T00:12:05;96710.63;;;20.86;66.60
6668;BME280;3370;47.712;9.082;2023-06-19T00:14:31;96709.56;;;20.89;66.79
6668;BME280;3370;47.712;9.082;2023-06-19T00:16:58;96710.41;;;20.80;66.84
6668;BME280;3370;47.712;9.082;2023-06-19T00:19:26;96716.72;;;20.77;66.64
6668;BME280;3370;47.712;9.082;2023-06-19T00:21:52;96713.25;;;20.86;66.61
6668;BME280;3370;47.712;9.082;2023-06-19T00:24:23;96723.56;;;20.98;66.54
6668;BME280;3370;47.712;9.082;2023-06-19T00:26:49;96724.44;;;20.69;66.88
6668;BME280;3370;47.712;9.082;2023-06-19T00:29:15;96727.72;;;20.52;67.90
6668;BME280;3370;47.712;9.082;2023-06-19T00:31:40;96717.00;;;20.45;68.30
6668;BME280;3370;47.712;9.082;2023-06-19T00:34:06;96723.34;;;20.42;68.31
6668;BME280;3370;47.712;9.082;2023-06-19T00:36:32;96721.97;;;20.38;68.59
6668;BME280;3370;47.712;9.082;2023-06-19T00:38:57;96720.59;;;20.34;68.93
6668;BME280;3370;47.712;9.082;2023-06-19T00:41:25;96728.00;;;20.39;68.50
6668;BME280;3370;47.712;9.082;2023-06-19T00:43:51;96729.94;;;20.37;68.96
6668;BME280;3370;47.712;9.082;2023-06-19T00:46:19;96728.28;;;20.45;68.94
6668;BME280;3370;47.712;9.082;2023-06-19T00:48:45;96743.69;;;20.29;69.29
6668;BME280;3370;47.712;9.082;2023-06-19T00:51:11;96746.16;;;20.40;68.29
6668;BME280;3370;47.712;9.082;2023-06-19T00:53:37;96747.41;;;20.36;67.60
6668;BME280;3370;47.712;9.082;2023-06-19T00:56:03;96753.16;;;20.20;68.03
6668;BME280;3370;47.712;9.082;2023-06-19T00:58:30;96753.28;;;20.19;68.80
6668;BME280;3370;47.712;9.082;2023-06-19T01:00:57;96754.25;;;19.98;69.53
6668;BME280;3370;47.712;9.082;2023-06-19T01:03:23;96759.84;;;19.94;69.95
6668;BME280;3370;47.712;9.082;2023-06-19T01:05:52;96750.78;;;19.98;69.54
6668;BME280;3370;47.712;9.082;2023-06-19T01:08:58;96760.28;;;19.89;69.54
6668;BME280;3370;47.712;9.082;2023-06-19T01:11:33;96754.34;;;19.87;70.05
6668;BME280;3370;47.712;9.082;2023-06-19T01:14:27;96761.75;;;19.82;70.42
6668;BME280;3370;47.712;9.082;2023-06-19T01:16:53;96762.72;;;19.81;70.83
6668;BME280;3370;47.712;9.082;2023-06-19T01:19:21;96761.06;;;19.80;70.92
6668;BME280;3370;47.712;9.082;2023-06-19T01:21:48;96764.38;;;19.82;70.77
6668;BME280;3370;47.712;9.082;2023-06-19T01:24:15;96759.84;;;19.94;70.76
6668;BME280;3370;47.712;9.082;2023-06-19T01:26:41;96764.00;;;20.16;70.16
6668;BME280;3370;47.712;9.082;2023-06-19T01:29:14;96769.78;;;20.09;69.91
6668;BME280;3370;47.712;9.082;2023-06-19T01:32:09;96782.81;;;20.09;69.41
6668;BME280;3370;47.712;9.082;2023-06-19T01:34:36;96778.53;;;19.89;69.85
6668;BME280;3370;47.712;9.082;2023-06-19T01:37:03;96779.91;;;20.03;70.30
6668;BME280;3370;47.712;9.082;2023-06-19T01:39:32;96794.59;;;19.94;69.83
6668;BME280;3370;47.712;9.082;2023-06-19T01:41:59;96795.13;;;19.88;69.33
6668;BME280;3370;47.712;9.082;2023-06-19T01:44:25;96791.97;;;19.94;69.51
6668;BME280;3370;47.712;9.082;2023-06-19T01:46:51;96795.81;;;19.80;70.28
6668;BME280;3370;47.712;9.082;2023-06-19T01:49:17;96800.78;;;19.83;71.21
6668;BME280;3370;47.712;9.082;2023-06-19T01:51:43;96795.59;;;19.72;71.65
6668;BME280;3370;47.712;9.082;2023-06-19T01:54:09;96795.72;;;19.70;71.83
6668;BME280;3370;47.712;9.082;2023-06-19T01:56:36;96805.69;;;19.86;71.01
6668;BME280;3370;47.712;9.082;2023-06-19T01:59:02;96802.09;;;19.78;72.07
6668;BME280;3370;47.712;9.082;2023-06-19T02:01:28;96810.81;;;19.67;72.00
6668;BME280;3370;47.712;9.082;2023-06-19T02:03:54;96816.13;;;19.77;70.32
6668;BME280;3370;47.712;9.082;2023-06-19T02:06:19;96827.56;;;19.64;70.31
6668;BME280;3370;47.712;9.082;2023-06-19T02:08:47;96823.28;;;19.63;70.61
6668;BME280;3370;47.712;9.082;2023-06-19T02:11:14;96842.69;;;19.70;70.06
6668;BME280;3370;47.712;9.082;2023-06-19T02:13:41;96840.84;;;19.82;70.12
6668;BME280;3370;47.712;9.082;2023-06-19T02:16:07;96846.38;;;19.89;69.35
6668;BME280;3370;47.712;9.082;2023-06-19T02:18:33;96844.56;;;19.80;68.96
6668;BME280;3370;47.712;9.082;2023-06-19T02:20:58;96851.28;;;19.82;68.93
6668;BME280;3370;47.712;9.082;2023-06-19T02:23:24;96855.38;;;19.75;69.86
6668;BME280;3370;47.712;9.082;2023-06-19T02:25:50;96872.41;;;19.79;72.20
6668;BME280;3370;47.712;9.082;2023-06-19T02:28:16;96878.97;;;19.73;73.46
6668;BME280;3370;47.712;9.082;2023-06-19T02:30:41;96883.13;;;19.76;74.04
6668;BME280;3370;47.712;9.082;2023-06-19T02:33:07;96892.47;;;19.79;74.81
6668;BME280;3370;47.712;9.082;2023-06-19T02:35:33;96892.78;;;19.85;75.39
6668;BME280;3370;47.712;9.082;2023-06-19T02:37:59;96893.59;;;19.86;75.96
6668;BME280;3370;47.712;9.082;2023-06-19T02:40:25;96896.88;;;19.88;74.92
6668;BME280;3370;47.712;9.082;2023-06-19T02:42:50;96898.84;;;19.96;73.41
6668;BME280;3370;47.712;9.082;2023-06-19T02:45:16;96897.34;;;19.93;73.80
6668;BME280;3370;47.712;9.082;2023-06-19T02:47:42;96899.69;;;19.96;72.54
6668;BME280;3370;47.712;9.082;2023-06-19T02:50:08;96899.25;;;19.91;72.73
6668;BME280;3370;47.712;9.082;2023-06-19T02:52:34;96903.56;;;20.02;70.22
6668;BME280;3370;47.712;9.082;2023-06-19T02:55:00;96911.50;;;20.00;70.25
6668;BME280;3370;47.712;9.082;2023-06-19T02:57:25;96904.00;;;20.07;70.24
6668;BME280;3370;47.712;9.082;2023-06-19T02:59:51;96896.53;;;20.02;70.31
6668;BME280;3370;47.712;9.082;2023-06-19T03:02:18;96885.84;;;20.05;70.31
6668;BME280;3370;47.712;9.082;2023-06-19T03:04:43;96897.78;;;19.98;70.97
6668;BME280;3370;47.712;9.082;2023-06-19T03:07:12;96905.16;;;19.93;71.81
6668;BME280;3370;47.712;9.082;2023-06-19T03:09:39;96902.56;;;19.93;72.44
6668;BME280;3370;47.712;9.082;2023-06-19T03:12:05;96912.41;;;19.89;73.96
6668;BME280;3370;47.712;9.082;2023-06-19T03:14:31;96896.88;;;19.88;75.34
6668;BME280;3370;47.712;9.082;2023-06-19T03:16:57;96901.84;;;19.91;75.91
6668;BME280;3370;47.712;9.082;2023-06-19T03:19:23;96901.53;;;19.84;76.46
6668;BME280;3370;47.712;9.082;2023-06-19T03:21:48;96904.25;;;19.73;76.92
6668;BME280;3370;47.712;9.082;2023-06-19T03:24:14;96900.34;;;19.67;77.90
6668;BME280;3370;47.712;9.082;2023-06-19T03:26:40;96909.09;;;19.66;78.96
6668;BME280;3370;47.712;9.082;2023-06-19T03:29:06;96921.84;;;19.81;80.75
6668;BME280;3370;47.712;9.082;2023-06-19T03:31:31;96935.88;;;19.80;82.35
6668;BME280;3370;47.712;9.082;2023-06-19T03:33:57;96932.41;;;19.58;82.52
6668;BME280;3370;47.712;9.082;2023-06-19T03:36:23;96935.06;;;19.47;84.10
6668;BME280;3370;47.712;9.082;2023-06-19T03:38:49;96932.34;;;19.48;86.39
6668;BME280;3370;47.712;9.082;2023-06-19T03:41:14;96931.28;;;19.51;82.64
6668;BME280;3370;47.712;9.082;2023-06-19T03:43:40;96929.44;;;19.42;83.47
6668;BME280;3370;47.712;9.082;2023-06-19T03:46:06;96929.16;;;19.24;85.37
6668;BME280;3370;47.712;9.082;2023-06-19T03:48:31;96939.03;;;19.20;85.78
6668;BME280;3370;47.712;9.082;2023-06-19T03:50:58;96932.47;;;19.26;85.13
6668;BME280;3370;47.712;9.082;2023-06-19T03:53:24;96928.97;;;19.37;83.46
6668;BME280;3370;47.712;9.082;2023-06-19T03:55:50;96939.59;;;19.24;84.38
6668;BME280;3370;47.712;9.082;2023-06-19T03:58:16;96929.47;;;19.30;86.84
6668;BME280;3370;47.712;9.082;2023-06-19T04:00:41;96925.59;;;19.25;86.72
6668;BME280;3370;47.712;9.082;2023-06-19T04:03:07;96918.16;;;19.20;87.50
6668;BME280;3370;47.712;9.082;2023-06-19T04:05:35;96922.88;;;19.47;88.34
6668;BME280;3370;47.712;9.082;2023-06-19T04:08:00;96952.84;;;19.53;88.96
6668;BME280;3370;47.712;9.082;2023-06-19T04:10:26;96958.84;;;19.32;87.24
6668;BME280;3370;47.712;9.082;2023-06-19T04:12:52;96952.22;;;19.28;85.06
6668;BME280;3370;47.712;9.082;2023-06-19T04:15:20;96953.91;;;19.29;84.44
6668;BME280;3370;47.712;9.082;2023-06-19T04:17:46;96936.03;;;19.25;85.13
6668;BME280;3370;47.712;9.082;2023-06-19T04:20:12;96939.97;;;19.40;86.50
6668;BME280;3370;47.712;9.082;2023-06-19T04:22:39;96966.03;;;19.61;85.75
6668;BME280;3370;47.712;9.082;2023-06-19T04:25:09;96970.81;;;19.35;87.39
6668;BME280;3370;47.712;9.082;2023-06-19T04:27:36;96973.25;;;19.15;89.12
6668;BME280;3370;47.712;9.082;2023-06-19T04:30:03;96970.19;;;19.10;89.01
6668;BME280;3370;47.712;9.082;2023-06-19T04:32:32;96967.22;;;19.15;89.09
6668;BME280;3370;47.712;9.082;2023-06-19T04:34:58;96960.34;;;19.14;90.17
6668;BME280;3370;47.712;9.082;2023-06-19T04:37:24;96969.53;;;19.29;90.92
6668;BME280;3370;47.712;9.082;2023-06-19T04:39:50;96971.94;;;19.21;91.28
6668;BME280;3370;47.712;9.082;2023-06-19T04:42:18;96970.19;;;19.10;92.34
6668;BME280;3370;47.712;9.082;2023-06-19T04:44:46;96973.59;;;19.22;92.72
6668;BME280;3370;47.712;9.082;2023-06-19T04:47:13;96979.56;;;19.13;93.97
6668;BME280;3370;47.712;9.082;2023-06-19T04:49:39;96989.66;;;19.06;94.95
6668;BME280;3370;47.712;9.082;2023-06-19T04:52:05;96973.81;;;18.98;95.94
6668;BME280;3370;47.712;9.082;2023-06-19T04:54:32;96979.72;;;19.00;96.01
6668;BME280;3370;47.712;9.082;2023-06-19T04:56:58;96975.84;;;18.94;96.61
6668;BME280;3370;47.712;9.082;2023-06-19T04:59:24;96984.31;;;19.08;97.46
6668;BME280;3370;47.712;9.082;2023-06-19T05:01:50;96992.06;;;18.98;98.99
6668;BME280;3370;47.712;9.082;2023-06-19T05:04:20;96992.38;;;19.05;99.84
6668;BME280;3370;47.712;9.082;2023-06-19T05:06:46;96989.34;;;19.21;98.46
6668;BME280;3370;47.712;9.082;2023-06-19T05:09:11;96994.34;;;19.24;96.94
6668;BME280;3370;47.712;9.082;2023-06-19T05:11:37;97005.34;;;19.16;97.74
6668;BME280;3370;47.712;9.082;2023-06-19T05:14:03;97010.34;;;19.19;97.62
6668;BME280;3370;47.712;9.082;2023-06-19T05:16:29;97022.75;;;19.27;99.01
6668;BME280;3370;47.712;9.082;2023-06-19T05:18:54;97021.00;;;19.48;98.86
6668;BME280;3370;47.712;9.082;2023-06-19T05:21:20;97022.25;;;19.33;96.61
6668;BME280;3370;47.712;9.082;2023-06-19T05:23:46;97009.59;;;19.28;90.26
6668;BME280;3370;47.712;9.082;2023-06-19T05:26:22;97013.97;;;19.28;90.68
6668;BME280;3370;47.712;9.082;2023-06-19T05:28:51;97012.13;;;19.40;92.23
6668;BME280;3370;47.712;9.082;2023-06-19T05:31:17;97010.28;;;19.30;95.80
6668;BME280;3370;47.712;9.082;2023-06-19T05:33:44;97014.22;;;19.25;93.76
6668;BME280;3370;47.712;9.082;2023-06-19T05:36:10;97016.50;;;19.18;92.13
6668;BME280;3370;47.712;9.082;2023-06-19T05:38:36;97008.94;;;19.15;92.84
6668;BME280;3370;47.712;9.082;2023-06-19T05:41:03;97018.31;;;19.06;93.56
6668;BME280;3370;47.712;9.082;2023-06-19T05:43:28;97010.34;;;19.19;92.85
6668;BME280;3370;47.712;9.082;2023-06-19T05:45:55;97014.72;;;19.19;93.32
6668;BME280;3370;47.712;9.082;2023-06-19T05:48:28;97025.63;;;19.24;88.75
6668;BME280;3370;47.712;9.082;2023-06-19T05:50:53;97025.94;;;19.30;89.87
6668;BME280;3370;47.712;9.082;2023-06-19T05:53:19;97030.47;;;19.17;90.71
6668;BME280;3370;47.712;9.082;2023-06-19T05:55:45;97029.53;;;19.18;92.75
6668;BME280;3370;47.712;9.082;2023-06-19T05:58:11;97036.44;;;19.08;96.07
6668;BME280;3370;47.712;9.082;2023-06-19T06:00:37;97043.91;;;19.01;95.46
6668;BME280;3370;47.712;9.082;2023-06-19T06:03:02;97040.09;;;19.05;92.62
6668;BME280;3370;47.712;9.082;2023-06-19T06:05:28;97050.66;;;19.04;91.49
6668;BME280;3370;47.712;9.082;2023-06-19T06:07:54;97042.59;;;19.07;90.98
6668;BME280;3370;47.712;9.082;2023-06-19T06:10:22;97047.94;;;18.94;93.10
6668;BME280;3370;47.712;9.082;2023-06-19T06:12:49;97041.91;;;18.93;94.27
6668;BME280;3370;47.712;9.082;2023-06-19T06:15:15;97039.06;;;18.85;96.15
6668;BME280;3370;47.712;9.082;2023-06-19T06:17:41;97028.91;;;18.82;97.39
6668;BME280;3370;47.712;9.082;2023-06-19T06:20:08;97029.38;;;18.87;99.05
6668;BME280;3370;47.712;9.082;2023-06-19T06:22:41;97015.97;;;18.81;93.62
6668;BME280;3370;47.712;9.082;2023-06-19T06:25:08;97016.72;;;18.83;93.92
6668;BME280;3370;47.712;9.082;2023-06-19T06:27:35;97011.59;;;18.92;95.26
6668;BME280;3370;47.712;9.082;2023-06-19T06:30:02;97009.09;;;19.02;95.83
6668;BME280;3370;47.712;9.082;2023-06-19T06:32:29;96997.09;;;19.11;96.07
6668;BME280;3370;47.712;9.082;2023-06-19T06:34:57;97000.03;;;19.18;90.44
6668;BME280;3370;47.712;9.082;2023-06-19T06:37:23;97003.22;;;19.21;87.04
6668;BME280;3370;47.712;9.082;2023-06-19T06:39:49;97008.81;;;19.17;91.06
6668;BME280;3370;47.712;9.082;2023-06-19T06:42:16;96999.16;;;19.28;91.86
6668;BME280;3370;47.712;9.082;2023-06-19T06:44:41;97006.00;;;19.41;92.77
6668;BME280;3370;47.712;9.082;2023-06-19T06:47:07;96995.03;;;19.47;93.37
6668;BME280;3370;47.712;9.082;2023-06-19T06:49:33;96988.13;;;19.57;92.23
6668;BME280;3370;47.712;9.082;2023-06-19T06:51:59;96987.13;;;19.69;94.19
6668;BME280;3370;47.712;9.082;2023-06-19T06:54:26;96980.94;;;19.70;92.96
6668;BME280;3370;47.712;9.082;2023-06-19T06:56:52;96982.94;;;19.78;93.09
6668;BME280;3370;47.712;9.082;2023-06-19T06:59:22;96978.59;;;19.88;93.83
6668;BME280;3370;47.712;9.082;2023-06-19T07:01:48;96979.03;;;19.94;91.97
6668;BME280;3370;47.712;9.082;2023-06-19T07:04:14;96979.72;;;20.17;90.28
6668;BME280;3370;47.712;9.082;2023-06-19T07:06:40;96980.16;;;20.22;87.00
6668;BME280;3370;47.712;9.082;2023-06-19T07:09:05;96974.72;;;20.04;87.48
6668;BME280;3370;47.712;9.082;2023-06-19T07:11:31;96972.81;;;20.16;86.17
6668;BME280;3370;47.712;9.082;2023-06-19T07:13:57;96983.91;;;20.29;82.73
6668;BME280;3370;47.712;9.082;2023-06-19T07:16:23;96984.16;;;20.26;82.53
6668;BME280;3370;47.712;9.082;2023-06-19T07:18:48;96982.13;;;20.08;84.31
6668;BME280;3370;47.712;9.082;2023-06-19T07:21:14;96980.94;;;20.13;88.52
6668;BME280;3370;47.712;9.082;2023-06-19T07:23:41;96981.66;;;20.24;85.14
6668;BME280;3370;47.712;9.082;2023-06-19T07:26:09;96982.47;;;20.25;85.36
6668;BME280;3370;47.712;9.082;2023-06-19T07:28:34;96980.94;;;20.43;86.58
6668;BME280;3370;47.712;9.082;2023-06-19T07:31:03;96973.78;;;20.55;89.32
6668;BME280;3370;47.712;9.082;2023-06-19T07:33:29;96982.19;;;20.59;87.38
6668;BME280;3370;47.712;9.082;2023-06-19T07:35:57;96986.53;;;20.79;87.85
6668;BME280;3370;47.712;9.082;2023-06-19T07:38:23;96984.50;;;21.02;78.38
6668;BME280;3370;47.712;9.082;2023-06-19T07:40:49;96985.88;;;20.87;81.34
6668;BME280;3370;47.712;9.082;2023-06-19T07:43:15;96978.72;;;20.48;82.67
6668;BME280;3370;47.712;9.082;2023-06-19T07:45:42;96985.19;;;20.85;82.44
6668;BME280;3370;47.712;9.082;2023-06-19T07:48:08;96981.03;;;20.82;78.85
6668;BME280;3370;47.712;9.082;2023-06-19T07:50:34;96977.34;;;20.95;78.73
6668;BME280;3370;47.712;9.082;2023-06-19T07:53:00;96970.84;;;20.79;77.34
6668;BME280;3370;47.712;9.082;2023-06-19T07:55:25;96974.13;;;20.62;79.02
6668;BME280;3370;47.712;9.082;2023-06-19T07:57:51;96965.56;;;20.60;82.18
6668;BME280;3370;47.712;9.082;2023-06-19T08:00:18;96961.50;;;20.67;81.69
6668;BME280;3370;47.712;9.082;2023-06-19T08:02:44;96966.19;;;20.73;80.34
6668;BME280;3370;47.712;9.082;2023-06-19T08:05:10;96960.44;;;20.99;80.90
6668;BME280;3370;47.712;9.082;2023-06-19T08:07:36;96973.50;;;20.99;80.24
6668;BME280;3370;47.712;9.082;2023-06-19T08:10:03;96968.69;;;21.04;79.18
6668;BME280;3370;47.712;9.082;2023-06-19T08:12:32;96965.53;;;21.10;78.48
6668;BME280;3370;47.712;9.082;2023-06-19T08:14:58;96967.19;;;21.11;76.90
6668;BME280;3370;47.712;9.082;2023-06-19T08:17:24;96963.75;;;21.20;75.90
6668;BME280;3370;47.712;9.082;2023-06-19T08:19:49;96957.13;;;21.26;75.70
6668;BME280;3370;47.712;9.082;2023-06-19T08:22:15;96957.97;;;21.27;75.13
6668;BME280;3370;47.712;9.082;2023-06-19T08:24:41;96965.25;;;21.33;74.76
6668;BME280;3370;47.712;9.082;2023-06-19T08:27:07;96967.59;;;21.65;74.79
6668;BME280;3370;47.712;9.082;2023-06-19T08:29:33;96962.31;;;21.94;68.86
6668;BME280;3370;47.712;9.082;2023-06-19T08:31:59;96961.97;;;22.07;69.27
6668;BME280;3370;47.712;9.082;2023-06-19T08:34:25;96963.84;;;21.87;66.95
6668;BME280;3370;47.712;9.082;2023-06-19T08:36:51;96970.56;;;21.99;69.98
6668;BME280;3370;47.712;9.082;2023-06-19T08:39:17;96959.56;;;21.86;69.52
6668;BME280;3370;47.712;9.082;2023-06-19T08:41:43;96959.78;;;22.02;69.45
6668;BME280;3370;47.712;9.082;2023-06-19T08:44:09;96957.47;;;21.99;71.12
6668;BME280;3370;47.712;9.082;2023-06-19T08:46:35;96953.19;;;21.98;69.40
6668;BME280;3370;47.712;9.082;2023-06-19T08:49:04;96955.66;;;22.00;67.72
6668;BME280;3370;47.712;9.082;2023-06-19T08:51:32;96949.03;;;22.06;66.56
6668;BME280;3370;47.712;9.082;2023-06-19T08:54:04;96955.88;;;22.16;65.94
6668;BME280;3370;47.712;9.082;2023-06-19T08:56:31;96952.84;;;22.21;66.13
6668;BME280;3370;47.712;9.082;2023-06-19T08:59:14;96956.41;;;22.30;65.68
6668;BME280;3370;47.712;9.082;2023-06-19T09:01:50;96951.56;;;22.25;67.73
6668;BME280;3370;47.712;9.082;2023-06-19T09:04:24;96946.56;;;22.42;66.60
6668;BME280;3370;47.712;9.082;2023-06-19T09:07:00;96951.88;;;22.77;63.65
6668;BME280;3370;47.712;9.082;2023-06-19T09:09:27;96949.03;;;22.89;63.09
6668;BME280;3370;47.712;9.082;2023-06-19T09:12:07;96945.88;;;22.85;62.80
6668;BME280;3370;47.712;9.082;2023-06-19T09:14:38;96944.66;;;23.07;62.94
6668;BME280;3370;47.712;9.082;2023-06-19T09:17:06;96952.34;;;22.91;60.51
6668;BME280;3370;47.712;9.082;2023-06-19T09:19:33;96944.38;;;22.65;61.39
6668;BME280;3370;47.712;9.082;2023-06-19T09:22:04;96938.78;;;22.50;62.63
6668;BME280;3370;47.712;9.082;2023-06-19T09:24:40;96946.84;;;22.66;61.81
6668;BME280;3370;47.712;9.082;2023-06-19T09:27:18;96950.47;;;22.83;62.74
6668;BME280;3370;47.712;9.082;2023-06-19T09:29:47;96943.13;;;22.87;62.64
6668;BME280;3370;47.712;9.082;2023-06-19T09:32:20;96946.34;;;22.98;61.43
6668;BME280;3370;47.712;9.082;2023-06-19T09:34:47;96949.66;;;23.19;61.14
6668;BME280;3370;47.712;9.082;2023-06-19T09:37:13;96952.59;;;23.15;62.01
6668;BME280;3370;47.712;9.082;2023-06-19T09:39:40;96945.13;;;23.21;61.30
6668;BME280;3370;47.712;9.082;2023-06-19T09:42:09;96950.72;;;23.08;62.28
6668;BME280;3370;47.712;9.082;2023-06-19T09:44:42;96949.91;;;23.07;61.74
6668;BME280;3370;47.712;9.082;2023-06-19T09:47:18;96941.22;;;23.25;60.12
6668;BME280;3370;47.712;9.082;2023-06-19T09:49:57;96939.78;;;23.57;60.66
6668;BME280;3370;47.712;9.082;2023-06-19T09:52:23;96932.38;;;23.70;57.74
6668;BME280;3370;47.712;9.082;2023-06-19T09:54:54;96933.66;;;23.66;59.19
6668;BME280;3370;47.712;9.082;2023-06-19T09:57:20;96932.38;;;23.70;58.13
6668;BME280;3370;47.712;9.082;2023-06-19T09:59:51;96931.22;;;23.72;59.95
6668;BME280;3370;47.712;9.082;2023-06-19T10:02:19;96935.13;;;23.86;59.91
6668;BME280;3370;47.712;9.082;2023-06-19T10:04:55;96930.09;;;24.01;57.98
6668;BME280;3370;47.712;9.082;2023-06-19T10:07:26;96929.97;;;24.11;58.04
6668;BME280;3370;47.712;9.082;2023-06-19T10:10:03;96918.38;;;24.22;57.63
6668;BME280;3370;47.712;9.082;2023-06-19T10:12:43;96918.44;;;24.38;58.11
6668;BME280;3370;47.712;9.082;2023-06-19T10:17:35;96915.13;;;24.79;56.46
6668;BME280;3370;47.712;9.082;2023-06-19T10:20:01;96910.72;;;24.87;55.71
6668;BME280;3370;47.712;9.082;2023-06-19T10:22:30;96906.94;;;25.23;54.69
6668;BME280;3370;47.712;9.082;2023-06-19T10:24:56;96903.16;;;25.17;55.08
6668;BME280;3370;47.712;9.082;2023-06-19T10:27:24;96908.25;;;24.86;55.00
6668;BME280;3370;47.712;9.082;2023-06-19T10:29:54;96908.38;;;24.68;56.58
6668;BME280;3370;47.712;9.082;2023-06-19T10:32:23;96900.97;;;24.80;55.17
6668;BME280;3370;47.712;9.082;2023-06-19T10:34:49;96896.59;;;24.97;57.11
6668;BME280;3370;47.712;9.082;2023-06-19T10:37:16;96896.69;;;24.62;58.03
6668;BME280;3370;47.712;9.082;2023-06-19T10:39:43;96897.88;;;24.84;56.60
6668;BME280;3370;47.712;9.082;2023-06-19T10:42:10;96887.84;;;24.88;57.18
6668;BME280;3370;47.712;9.082;2023-06-19T10:44:36;96883.91;;;25.09;53.62
6668;BME280;3370;47.712;9.082;2023-06-19T10:47:07;96884.59;;;25.27;54.39
6668;BME280;3370;47.712;9.082;2023-06-19T10:49:33;96884.59;;;25.35;53.18
6668;BME280;3370;47.712;9.082;2023-06-19T10:52:00;96880.47;;;25.41;53.90
6668;BME280;3370;47.712;9.082;2023-06-19T10:54:28;96881.63;;;25.47;54.58
6668;BME280;3370;47.712;9.082;2023-06-19T10:56:54;96877.31;;;25.62;53.94
6668;BME280;3370;47.712;9.082;2023-06-19T10:59:20;96873.69;;;25.71;52.52
6668;BME280;3370;47.712;9.082;2023-06-19T11:01:47;96866.09;;;25.93;51.96
6668;BME280;3370;47.712;9.082;2023-06-19T11:04:15;96867.78;;;26.17;50.59
6668;BME280;3370;47.712;9.082;2023-06-19T11:06:43;96865.50;;;26.45;51.44
6668;BME280;3370;47.712;9.082;2023-06-19T11:09:11;96862.81;;;26.62;51.02
6668;BME280;3370;47.712;9.082;2023-06-19T11:11:48;96870.50;;;26.32;49.92
6668;BME280;3370;47.712;9.082;2023-06-19T11:14:15;96862.38;;;26.10;50.29
6668;BME280;3370;47.712;9.082;2023-06-19T11:16:45;96864.72;;;26.36;48.05
6668;BME280;3370;47.712;9.082;2023-06-19T11:19:20;96862.09;;;26.59;48.98
6668;BME280;3370;47.712;9.082;2023-06-19T11:21:50;96858.06;;;26.80;47.71
6668;BME280;3370;47.712;9.082;2023-06-19T11:24:17;96857.50;;;27.08;47.36
6668;BME280;3370;47.712;9.082;2023-06-19T11:26:46;96856.59;;;27.15;47.39
6668;BME280;3370;47.712;9.082;2023-06-19T11:29:24;96859.69;;;27.27;46.50
6668;BME280;3370;47.712;9.082;2023-06-19T11:32:14;96848.97;;;27.59;47.39
6668;BME280;3370;47.712;9.082;2023-06-19T11:34:40;96849.97;;;27.87;43.94
6668;BME280;3370;47.712;9.082;2023-06-19T11:37:17;96842.59;;;27.83;44.50
6668;BME280;3370;47.712;9.082;2023-06-19T11:39:45;96840.06;;;28.04;43.78
6668;BME280;3370;47.712;9.082;2023-06-19T11:42:11;96840.97;;;27.82;45.10
6668;BME280;3370;47.712;9.082;2023-06-19T11:44:56;96834.03;;;28.10;44.44
6668;BME280;3370;47.712;9.082;2023-06-19T11:47:22;96840.06;;;28.04;42.41
6668;BME280;3370;47.712;9.082;2023-06-19T11:49:50;96836.09;;;28.30;43.04
6668;BME280;3370;47.712;9.082;2023-06-19T11:52:16;96830.81;;;28.52;42.50
6668;BME280;3370;47.712;9.082;2023-06-19T11:54:42;96834.84;;;28.47;41.09
6668;BME280;3370;47.712;9.082;2023-06-19T11:57:09;96822.22;;;28.28;42.27
6668;BME280;3370;47.712;9.082;2023-06-19T11:59:42;96815.16;;;28.14;42.84
6668;BME280;3370;47.712;9.082;2023-06-19T12:02:08;96816.91;;;28.79;42.26
6668;BME280;3370;47.712;9.082;2023-06-19T12:04:35;96808.84;;;29.44;40.57
6668;BME280;3370;47.712;9.082;2023-06-19T12:07:01;96811.41;;;29.66;40.08
6668;BME280;3370;47.712;9.082;2023-06-19T12:09:27;96813.75;;;29.82;40.69
6668;BME280;3370;47.712;9.082;2023-06-19T12:11:55;96807.84;;;30.28;41.17
6668;BME280;3370;47.712;9.082;2023-06-19T12:14:21;96802.41;;;30.50;39.64
6668;BME280;3370;47.712;9.082;2023-06-19T12:16:47;96809.00;;;31.01;40.48
6668;BME280;3370;47.712;9.082;2023-06-19T12:19:13;96806.38;;;30.26;38.99
6668;BME280;3370;47.712;9.082;2023-06-19T12:21:39;96792.78;;;30.35;39.75
6668;BME280;3370;47.712;9.082;2023-06-19T12:24:05;96794.25;;;30.58;38.72
6668;BME280;3370;47.712;9.082;2023-06-19T12:26:34;96786.38;;;30.10;40.14
6668;BME280;3370;47.712;9.082;2023-06-19T12:29:03;96784.88;;;30.62;38.29
6668;BME280;3370;47.712;9.082;2023-06-19T12:31:30;96790.59;;;30.59;39.61
6668;BME280;3370;47.712;9.082;2023-06-19T12:33:56;96782.41;;;30.67;37.09
6668;BME280;3370;47.712;9.082;2023-06-19T12:36:22;96788.53;;;30.48;37.18
6668;BME280;3370;47.712;9.082;2023-06-19T12:38:48;96776.72;;;29.60;39.03
6668;BME280;3370;47.712;9.082;2023-06-19T12:41:15;96772.28;;;30.03;38.42
6668;BME280;3370;47.712;9.082;2023-06-19T12:43:40;96767.88;;;30.36;37.11
6668;BME280;3370;47.712;9.082;2023-06-19T12:46:07;96766.72;;;30.86;37.49
6668;BME280;3370;47.712;9.082;2023-06-19T12:48:33;96761.59;;;30.77;36.17
6668;BME280;3370;47.712;9.082;2023-06-19T12:50:58;96762.00;;;30.61;34.83
6668;BME280;3370;47.712;9.082;2023-06-19T12:53:24;96768.94;;;30.55;35.90
6668;BME280;3370;47.712;9.082;2023-06-19T12:55:56;96769.13;;;29.86;36.55
6668;BME280;3370;47.712;9.082;2023-06-19T12:58:22;96760.59;;;29.90;37.44
6668;BME280;3370;47.712;9.082;2023-06-19T13:00:48;96760.84;;;30.02;36.87
6668;BME280;3370;47.712;9.082;2023-06-19T13:03:14;96756.00;;;29.71;36.44
6668;BME280;3370;47.712;9.082;2023-06-19T13:05:40;96750.72;;;29.71;36.72
6668;BME280;3370;47.712;9.082;2023-06-19T13:08:06;96744.94;;;29.60;36.81
6668;BME280;3370;47.712;9.082;2023-06-19T13:10:31;96749.84;;;29.63;37.26
6668;BME280;3370;47.712;9.082;2023-06-19T13:12:57;96748.22;;;30.04;37.65
6668;BME280;3370;47.712;9.082;2023-06-19T13:15:24;96743.34;;;30.21;36.57
6668;BME280;3370;47.712;9.082;2023-06-19T13:17:50;96746.44;;;30.25;37.22
6668;BME280;3370;47.712;9.082;2023-06-19T13:20:16;96735.78;;;30.18;36.20
6668;BME280;3370;47.712;9.082;2023-06-19T13:22:42;96740.97;;;30.39;35.83
6668;BME280;3370;47.712;9.082;2023-06-19T13:25:08;96736.97;;;30.02;36.57
6668;BME280;3370;47.712;9.082;2023-06-19T13:27:34;96737.91;;;29.74;37.01